createdAt,value
2019-02-08T00:01:29.497Z,70.30
2019-02-08T00:04:10.141Z,70.40
2019-02-08T00:06:44.385Z,70.40
2019-02-08T00:09:27.659Z,70.50
2019-02-08T00:12:02.564Z,70.60
2019-02-08T00:14:38.502Z,70.60
2019-02-08T00:17:16.241Z,70.60
2019-02-08T00:20:13.064Z,70.70
2019-02-08T00:23:02.700Z,70.80
2019-02-08T00:31:39.795Z,70.90
2019-02-08T00:34:24.589Z,70.80
2019-02-08T00:37:15.240Z,70.90
2019-02-08T00:39:51.936Z,71.00
2019-02-08T00:42:30.000Z,71.10
2019-02-08T00:45:03.415Z,71.10
2019-02-08T00:47:36.711Z,71.20
2019-02-08T00:50:38.311Z,71.30
2019-02-08T00:53:21.432Z,71.40
2019-02-08T00:55:52.753Z,71.50
2019-02-08T00:58:25.145Z,71.60
2019-02-08T01:01:01.882Z,71.50
2019-02-08T01:03:32.992Z,71.50
2019-02-08T01:06:06.219Z,71.50
2019-02-08T01:08:37.230Z,71.50
2019-02-08T01:11:10.670Z,71.40
2019-02-08T01:13:42.775Z,71.50
2019-02-08T01:16:23.376Z,71.50
2019-02-08T01:18:57.167Z,71.40
2019-02-08T01:21:28.113Z,71.50
2019-02-08T01:24:17.086Z,71.60
2019-02-08T01:26:53.873Z,71.60
2019-02-08T01:29:37.397Z,71.60
2019-02-08T01:32:08.602Z,71.50
2019-02-08T01:34:39.806Z,71.60
2019-02-08T01:37:13.842Z,71.60
2019-02-08T01:39:46.233Z,71.70
2019-02-08T01:42:19.964Z,71.70
2019-02-08T01:44:52.075Z,71.70
2019-02-08T01:47:28.667Z,71.80
2019-02-08T01:50:02.167Z,71.80
2019-02-08T01:52:38.349Z,71.80
2019-02-08T01:55:10.582Z,71.90
2019-02-08T01:57:41.710Z,71.80
2019-02-08T02:00:38.295Z,71.80
2019-02-08T02:03:14.427Z,71.80
2019-02-08T02:05:49.373Z,71.80
2019-02-08T02:08:22.092Z,72.50
2019-02-08T02:10:56.179Z,71.90
2019-02-08T02:13:27.609Z,71.90
2019-02-08T02:16:04.281Z,71.90
2019-02-08T02:18:39.973Z,71.80
2019-02-08T02:21:15.111Z,71.90
2019-02-08T02:23:55.950Z,71.90
2019-02-08T02:26:26.243Z,71.90
2019-02-08T02:28:57.736Z,71.90
2019-02-08T02:31:30.065Z,72.00
2019-02-08T02:34:09.239Z,72.20
2019-02-08T02:36:37.686Z,72.30
2019-02-08T02:39:15.095Z,72.50
2019-02-08T02:41:46.024Z,72.50
2019-02-08T02:44:17.919Z,72.50
2019-02-08T02:46:49.298Z,72.50
2019-02-08T02:49:20.344Z,72.40
2019-02-08T02:51:52.581Z,72.40
2019-02-08T02:54:23.894Z,72.60
2019-02-08T02:57:17.385Z,72.60
2019-02-08T02:59:34.989Z,72.60
2019-02-08T03:02:40.443Z,72.60
2019-02-08T03:05:22.029Z,72.80
2019-02-08T03:08:04.694Z,73.60
2019-02-08T03:10:47.302Z,73.00
2019-02-08T03:14:16.909Z,73.10
2019-02-08T03:15:58.479Z,73.80
2019-02-08T03:18:35.986Z,73.10
2019-02-08T03:21:04.456Z,73.10
2019-02-08T03:23:36.712Z,73.20
2019-02-08T03:26:16.349Z,73.20
2019-02-08T03:28:54.052Z,73.30
2019-02-08T03:31:29.238Z,73.30
2019-02-08T03:34:01.085Z,73.40
2019-02-08T03:36:36.199Z,73.50
2019-02-08T03:39:10.741Z,73.50
2019-02-08T03:41:43.370Z,73.70
2019-02-08T03:44:17.678Z,73.70
2019-02-08T03:46:48.613Z,73.70
2019-02-08T03:49:25.306Z,73.80
2019-02-08T03:51:57.422Z,73.90
2019-02-08T03:54:30.540Z,73.70
2019-02-08T03:57:03.483Z,73.70
2019-02-08T03:59:36.473Z,73.80
2019-02-08T04:02:15.648Z,73.70
2019-02-08T04:04:49.410Z,73.70
2019-02-08T04:07:25.853Z,73.70
2019-02-08T04:09:59.628Z,73.70
2019-02-08T04:12:30.460Z,73.60
2019-02-08T04:15:02.520Z,73.60
2019-02-08T04:17:35.646Z,74.30
2019-02-08T04:20:07.365Z,73.70
2019-02-08T04:22:43.605Z,73.70
2019-02-08T04:25:16.565Z,73.70
2019-02-08T04:27:48.190Z,73.70
2019-02-08T04:30:32.153Z,73.70
2019-02-08T04:33:03.632Z,73.50
2019-02-08T04:35:41.874Z,73.70
2019-02-08T04:38:18.431Z,73.60
2019-02-08T04:40:50.497Z,73.10
2019-02-08T04:43:26.587Z,73.60
2019-02-08T04:46:23.769Z,73.60
2019-02-08T04:49:09.351Z,73.60
2019-02-08T04:51:40.951Z,73.60
2019-02-08T04:54:22.496Z,73.50
2019-02-08T04:56:55.366Z,73.50
2019-02-08T04:59:28.077Z,73.60
2019-02-08T05:02:00.911Z,73.50
2019-02-08T05:04:35.038Z,73.40
2019-02-08T05:07:06.330Z,73.40
2019-02-08T05:09:42.461Z,73.30
2019-02-08T05:12:11.917Z,73.40
2019-02-08T05:14:45.914Z,73.30
2019-02-08T05:17:17.526Z,73.40
2019-02-08T05:19:48.518Z,73.50
2019-02-08T05:22:34.867Z,73.60
2019-02-08T05:25:08.598Z,73.40
2019-02-08T05:27:39.714Z,73.40
2019-02-08T05:30:21.734Z,73.30
2019-02-08T05:32:54.236Z,73.20
2019-02-08T05:35:26.775Z,72.90
2019-02-08T05:38:00.310Z,72.80
2019-02-08T05:40:31.764Z,72.80
2019-02-08T05:43:02.969Z,72.60
2019-02-08T05:46:24.716Z,72.60
2019-02-08T05:48:15.071Z,72.60
2019-02-08T05:50:52.016Z,72.70
2019-02-08T05:53:23.259Z,72.60
2019-02-08T05:55:58.766Z,72.60
2019-02-08T05:58:31.095Z,72.60
2019-02-08T06:01:04.303Z,72.60
2019-02-08T06:03:37.501Z,72.60
2019-02-08T06:06:08.616Z,72.80
2019-02-08T06:08:39.523Z,72.70
2019-02-08T06:11:10.332Z,72.60
2019-02-08T06:13:43.062Z,72.60
2019-02-08T06:16:14.080Z,72.60
2019-02-08T06:18:48.050Z,72.50
2019-02-08T06:21:23.658Z,72.50
2019-02-08T06:23:57.270Z,72.50
2019-02-08T06:26:35.328Z,72.50
2019-02-08T06:29:03.601Z,72.50
2019-02-08T06:31:34.749Z,72.50
2019-02-08T06:34:06.220Z,72.50
2019-02-08T06:36:37.509Z,72.60
2019-02-08T06:39:16.244Z,72.50
2019-02-08T06:41:49.173Z,72.50
2019-02-08T06:44:40.204Z,72.50
2019-02-08T06:47:15.196Z,72.50
2019-02-08T06:49:53.089Z,72.50
2019-02-08T06:52:24.851Z,72.50
2019-02-08T06:55:10.490Z,72.50
2019-02-08T06:57:44.066Z,72.50
2019-02-08T07:00:33.021Z,72.50
2019-02-08T07:03:28.386Z,72.50
2019-02-08T07:06:19.607Z,72.50
2019-02-08T07:09:09.232Z,72.50
2019-02-08T07:11:56.029Z,72.50
2019-02-08T07:14:46.177Z,72.60
2019-02-08T07:17:32.091Z,72.70
2019-02-08T07:20:33.493Z,72.70
2019-02-08T07:23:20.110Z,72.80
2019-02-08T07:26:08.774Z,72.80
2019-02-08T07:28:54.388Z,72.80
2019-02-08T07:31:47.835Z,72.80
2019-02-08T07:34:27.003Z,72.90
2019-02-08T07:37:54.774Z,72.90
2019-02-08T07:40:58.682Z,72.90
2019-02-08T07:43:56.250Z,72.90
2019-02-08T07:46:44.560Z,72.90
2019-02-08T07:49:39.600Z,73.00
2019-02-08T07:52:52.942Z,73.00
2019-02-08T07:55:32.981Z,73.10
2019-02-08T07:58:58.399Z,73.10
2019-02-08T08:01:53.196Z,73.10
2019-02-08T08:04:49.915Z,73.20
2019-02-08T08:07:45.038Z,73.10
2019-02-08T08:10:40.266Z,73.00
2019-02-08T08:13:28.965Z,72.80
2019-02-08T08:16:20.579Z,72.80
2019-02-08T08:19:29.791Z,72.80
2019-02-08T08:22:19.655Z,72.60
2019-02-08T08:25:17.426Z,72.60
2019-02-08T08:28:25.393Z,72.50
2019-02-08T08:31:58.969Z,72.20
2019-02-08T08:35:30.976Z,72.30
2019-02-08T08:39:07.853Z,72.30
2019-02-08T08:42:43.352Z,72.00
2019-02-08T08:46:11.920Z,71.90
2019-02-08T08:49:32.431Z,72.00
2019-02-08T08:53:27.131Z,71.90
2019-02-08T08:57:15.731Z,71.70
2019-02-08T09:00:50.136Z,71.50
2019-02-08T09:12:44.694Z,70.90
2019-02-08T09:15:44.619Z,70.80
2019-02-08T09:19:52.473Z,70.60
2019-02-08T09:23:30.026Z,70.50
2019-02-08T09:27:12.870Z,70.50
2019-02-08T09:31:06.367Z,70.80
2019-02-08T09:34:40.869Z,70.30
2019-02-08T09:38:03.959Z,69.80
2019-02-08T09:41:30.313Z,69.50
2019-02-08T09:44:43.338Z,69.50
2019-02-08T09:48:26.775Z,69.40
2019-02-08T09:52:19.338Z,69.10
2019-02-08T09:55:48.262Z,68.70
2019-02-08T09:59:20.019Z,68.40
2019-02-08T10:02:55.327Z,68.20
2019-02-08T10:06:49.552Z,68.20
2019-02-08T10:10:33.357Z,68.10
2019-02-08T10:14:14.345Z,67.60
2019-02-08T10:18:26.623Z,67.40
2019-02-08T10:21:58.534Z,67.10
2019-02-08T10:25:27.792Z,66.90
2019-02-08T10:29:20.613Z,66.80
2019-02-08T10:32:54.340Z,66.60
2019-02-08T10:36:43.579Z,66.40
2019-02-08T10:44:11.680Z,66.20
2019-02-08T10:47:25.647Z,65.80
2019-02-08T10:51:04.577Z,65.50
2019-02-08T10:54:22.890Z,65.00
2019-02-08T10:57:54.309Z,64.50
2019-02-08T11:01:43.583Z,64.30
2019-02-08T11:05:29.727Z,64.00
2019-02-08T11:08:52.561Z,63.80
2019-02-08T11:12:23.426Z,63.60
2019-02-08T11:16:22.749Z,63.50
2019-02-08T11:19:23.414Z,63.40
2019-02-08T11:21:58.492Z,63.00
2019-02-08T11:24:35.836Z,62.80
2019-02-08T11:27:10.721Z,62.70
2019-02-08T11:30:16.595Z,62.30
2019-02-08T11:32:49.548Z,61.80
2019-02-08T11:35:29.641Z,61.50
2019-02-08T11:38:11.847Z,61.60
2019-02-08T11:40:44.586Z,61.20
2019-02-08T11:43:17.381Z,60.70
2019-02-08T11:45:52.315Z,60.60
2019-02-08T11:48:25.665Z,60.50
2019-02-08T11:50:59.122Z,60.50
2019-02-08T11:53:31.601Z,60.50
2019-02-08T11:56:16.410Z,60.50
2019-02-08T11:58:56.838Z,60.10
2019-02-08T12:01:44.521Z,60.20
2019-02-08T12:04:22.459Z,60.20
2019-02-08T12:06:54.896Z,60.10
2019-02-08T12:09:29.248Z,60.20
2019-02-08T12:12:00.159Z,60.40
2019-02-08T12:14:36.007Z,60.50
2019-02-08T12:17:06.859Z,60.10
2019-02-08T12:19:38.117Z,60.00
2019-02-08T12:22:09.167Z,60.00
2019-02-08T12:24:47.043Z,60.00
2019-02-08T12:27:30.289Z,59.80
2019-02-08T12:30:05.310Z,59.90
2019-02-08T12:32:40.419Z,59.80
2019-02-08T12:35:14.503Z,59.70
2019-02-08T12:37:45.957Z,59.70
2019-02-08T12:40:22.728Z,59.80
2019-02-08T12:42:57.298Z,59.50
2019-02-08T12:45:30.596Z,59.20
2019-02-08T12:48:01.535Z,59.40
2019-02-08T12:50:44.244Z,59.20
2019-02-08T12:53:15.168Z,59.20
2019-02-08T12:55:59.352Z,59.40
2019-02-08T13:04:52.260Z,59.20
2019-02-08T13:07:54.648Z,59.20
2019-02-08T13:10:29.444Z,59.90
2019-02-08T13:13:17.114Z,59.30
2019-02-08T13:15:52.610Z,59.10
2019-02-08T13:18:27.541Z,59.10
2019-02-08T13:21:27.484Z,58.80
2019-02-08T13:24:01.055Z,58.60
2019-02-08T13:26:33.887Z,58.50
2019-02-08T13:29:24.744Z,58.30
2019-02-08T13:31:52.173Z,58.20
2019-02-08T13:34:27.503Z,57.90
2019-02-08T13:36:59.479Z,58.00
2019-02-08T13:39:34.450Z,58.00
2019-02-08T13:42:06.095Z,58.10
2019-02-08T13:44:42.974Z,58.40
2019-02-08T13:47:36.654Z,58.30
2019-02-08T13:50:14.046Z,58.10
2019-02-08T13:53:02.593Z,58.10
2019-02-08T13:55:26.702Z,58.00
2019-02-08T13:58:06.069Z,58.10
2019-02-08T14:00:42.405Z,58.00
2019-02-08T14:03:15.921Z,58.00
2019-02-08T14:05:49.773Z,58.00
2019-02-08T14:08:23.598Z,58.00
2019-02-08T14:10:55.023Z,58.50
2019-02-08T14:13:29.874Z,57.90
2019-02-08T14:16:06.108Z,57.70
2019-02-08T14:18:40.252Z,57.70
2019-02-08T14:21:20.903Z,57.70
2019-02-08T14:23:57.708Z,57.70
2019-02-08T14:26:33.909Z,57.70
2019-02-08T14:29:07.335Z,57.60
2019-02-08T14:31:44.746Z,57.80
2019-02-08T14:34:22.701Z,57.90
2019-02-08T14:37:01.792Z,58.10
2019-02-08T14:39:36.061Z,58.00
2019-02-08T14:42:52.389Z,58.00
2019-02-08T14:45:39.673Z,57.70
2019-02-08T14:48:06.007Z,57.70
2019-02-08T14:54:18.705Z,58.00
2019-02-08T14:57:07.542Z,58.00
2019-02-08T14:59:47.656Z,58.20
2019-02-08T15:02:35.139Z,58.10
2019-02-08T15:05:13.930Z,58.20
2019-02-08T15:08:28.461Z,58.30
2019-02-08T15:11:03.757Z,58.30
2019-02-08T15:13:46.476Z,58.30
2019-02-08T15:17:46.864Z,58.30
2019-02-08T15:19:57.950Z,58.30
2019-02-08T15:23:07.701Z,58.30
2019-02-08T15:32:47.014Z,58.20
2019-02-08T15:35:20.512Z,58.20
2019-02-08T15:38:07.275Z,58.30
2019-02-08T15:41:08.287Z,58.40
2019-02-08T15:43:47.393Z,58.40
2019-02-08T15:46:34.740Z,58.40
2019-02-08T15:50:49.879Z,58.60
2019-02-08T15:52:05.746Z,58.70
2019-02-08T15:54:44.764Z,58.80
2019-02-08T15:57:23.690Z,58.80
2019-02-08T16:00:10.855Z,59.00
2019-02-08T16:02:50.381Z,58.90
2019-02-08T16:05:25.133Z,59.70
2019-02-08T16:07:58.553Z,59.10
2019-02-08T16:10:37.581Z,59.20
2019-02-08T16:17:55.958Z,59.40
2019-02-08T16:20:36.472Z,59.60
2019-02-08T16:23:09.977Z,59.60
2019-02-08T16:26:06.664Z,59.60
2019-02-08T16:28:51.837Z,59.90
2019-02-08T16:31:44.788Z,60.00
2019-02-08T16:34:55.622Z,60.10
2019-02-08T16:37:39.077Z,60.20
2019-02-08T16:40:37.095Z,60.30
2019-02-08T16:43:16.716Z,61.10
2019-02-08T16:45:51.089Z,60.50
2019-02-08T16:48:30.720Z,60.50
2019-02-08T16:51:03.168Z,60.60
2019-02-08T16:53:44.794Z,60.60
2019-02-08T16:56:24.514Z,60.60
2019-02-08T16:59:06.485Z,60.60
2019-02-08T17:02:18.047Z,60.70
2019-02-08T17:04:51.574Z,60.70
2019-02-08T17:07:27.918Z,60.70
2019-02-08T17:10:04.509Z,60.70
2019-02-08T17:12:59.665Z,60.90
2019-02-08T17:15:37.754Z,61.00
2019-02-08T17:18:44.173Z,60.80
2019-02-08T17:21:29.535Z,60.80
2019-02-08T17:23:58.767Z,60.80
2019-02-08T17:26:47.278Z,61.10
2019-02-08T17:29:21.922Z,60.80
2019-02-08T17:32:18.344Z,61.00
2019-02-08T17:35:00.242Z,60.90
2019-02-08T17:37:36.144Z,60.90
2019-02-08T17:40:18.449Z,61.10
2019-02-08T17:43:11.863Z,61.30
2019-02-08T17:49:47.906Z,61.50
2019-02-08T17:52:28.828Z,61.50
2019-02-08T17:55:17.362Z,61.60
2019-02-08T17:58:03.204Z,61.70
2019-02-08T18:01:11.564Z,61.80
2019-02-08T18:03:42.939Z,61.90
2019-02-08T18:06:15.306Z,62.00
2019-02-08T18:08:56.390Z,62.00
2019-02-08T18:11:27.330Z,62.20
2019-02-08T18:14:10.245Z,62.40
2019-02-08T18:16:47.037Z,62.40
2019-02-08T18:19:23.966Z,62.70
2019-02-08T18:22:00.767Z,62.70
2019-02-08T18:24:56.910Z,62.90
2019-02-08T18:27:33.280Z,63.10
2019-02-08T18:30:10.048Z,63.20
2019-02-08T18:32:48.268Z,63.40
2019-02-08T18:35:50.099Z,63.80
2019-02-08T18:38:37.339Z,64.00
2019-02-08T18:41:11.670Z,64.00
2019-02-08T18:43:45.358Z,64.10
2019-02-08T18:46:27.371Z,64.40
2019-02-08T18:48:58.102Z,64.50
2019-02-08T18:51:34.882Z,64.50
2019-02-08T18:54:15.330Z,64.50
2019-02-08T18:57:01.448Z,64.60
2019-02-08T18:59:32.410Z,64.70
2019-02-08T19:02:14.090Z,64.70
2019-02-08T19:04:45.006Z,64.70
2019-02-08T19:07:55.009Z,64.70
2019-02-08T19:10:17.678Z,64.80
2019-02-08T19:12:52.172Z,64.80
2019-02-08T19:15:35.223Z,64.80
2019-02-08T19:18:15.404Z,64.80
2019-02-08T19:20:58.307Z,65.00
2019-02-08T19:23:44.154Z,64.90
2019-02-08T19:26:21.335Z,64.90
2019-02-08T19:28:52.383Z,65.00
2019-02-08T19:31:23.765Z,65.00
2019-02-08T19:33:54.829Z,65.10
2019-02-08T19:36:37.348Z,65.20
2019-02-08T19:39:17.439Z,65.10
2019-02-08T19:41:45.288Z,65.10
2019-02-08T19:44:18.084Z,65.20
2019-02-08T19:46:50.434Z,65.20
2019-02-08T19:49:39.729Z,65.30
2019-02-08T19:52:13.041Z,65.30
2019-02-08T19:54:52.164Z,65.40
2019-02-08T19:57:35.376Z,65.30
2019-02-08T20:00:16.611Z,65.30
2019-02-08T20:02:54.559Z,65.30
2019-02-08T20:05:30.050Z,65.30
2019-02-08T20:08:00.861Z,65.40
2019-02-08T20:10:40.832Z,65.40
2019-02-08T20:13:15.690Z,65.40
2019-02-08T20:15:59.654Z,65.30
2019-02-08T20:18:36.267Z,65.30
2019-02-08T20:21:12.939Z,66.10
2019-02-08T20:23:43.784Z,65.30
2019-02-08T20:26:17.892Z,65.30
2019-02-08T20:28:51.979Z,65.80
2019-02-08T20:31:24.794Z,65.20
2019-02-08T20:33:57.716Z,65.10
2019-02-08T20:36:28.293Z,65.10
2019-02-08T20:39:01.487Z,65.10
2019-02-08T20:41:32.374Z,65.00
2019-02-08T20:44:05.003Z,64.90
2019-02-08T20:46:39.843Z,64.90
2019-02-08T20:49:13.513Z,64.80
2019-02-08T20:51:47.943Z,64.90
2019-02-08T20:54:18.621Z,64.90
2019-02-08T20:56:58.585Z,64.90
2019-02-08T20:59:33.243Z,64.90
2019-02-08T21:02:07.119Z,64.80
2019-02-08T21:04:38.250Z,64.80
2019-02-08T21:07:14.677Z,64.70
2019-02-08T21:09:53.608Z,64.60
2019-02-08T21:12:26.368Z,64.50
2019-02-08T21:15:12.530Z,64.40
2019-02-08T21:17:42.441Z,64.30
2019-02-08T21:20:18.457Z,64.20
2019-02-08T21:22:50.230Z,64.10
2019-02-08T21:25:29.120Z,64.10
2019-02-08T21:28:05.560Z,64.10
2019-02-08T21:30:42.437Z,64.10
2019-02-08T21:33:27.280Z,64.00
2019-02-08T21:35:59.841Z,63.90
2019-02-08T21:38:36.455Z,63.90
2019-02-08T21:41:11.458Z,63.90
2019-02-08T21:43:52.409Z,63.90
2019-02-08T21:46:31.617Z,63.90
2019-02-08T21:49:09.229Z,63.90
2019-02-08T21:51:49.343Z,63.80
2019-02-08T21:54:27.907Z,63.80
2019-02-08T21:57:32.114Z,63.60
2019-02-08T22:00:04.010Z,63.60
2019-02-08T22:02:44.478Z,63.50
2019-02-08T22:05:52.424Z,63.40
2019-02-08T22:08:15.842Z,63.30
2019-02-08T22:10:53.870Z,63.30
2019-02-08T22:13:44.880Z,63.20
2019-02-08T22:16:09.727Z,63.00
2019-02-08T22:18:40.996Z,62.80
2019-02-08T22:21:51.809Z,62.50
2019-02-08T22:24:27.210Z,62.30
2019-02-08T22:27:12.230Z,62.10
2019-02-08T22:29:48.242Z,61.80
2019-02-08T22:32:44.638Z,61.50
2019-02-08T22:35:22.606Z,61.30
2019-02-08T22:38:09.806Z,61.20
2019-02-08T22:41:09.547Z,61.00
2019-02-08T22:43:44.370Z,60.90
2019-02-08T22:46:24.192Z,60.90
2019-02-08T22:49:29.542Z,61.00
2019-02-08T22:54:57.033Z,60.90
2019-02-08T22:58:07.313Z,60.70
2019-02-08T23:01:51.786Z,60.50
2019-02-08T23:04:32.321Z,60.30
2019-02-08T23:07:20.384Z,60.00
2019-02-08T23:10:12.476Z,60.00
2019-02-08T23:12:27.302Z,60.10
2019-02-08T23:15:48.618Z,59.90
2019-02-08T23:18:20.932Z,59.70
2019-02-08T23:21:01.437Z,60.10
2019-02-08T23:24:02.886Z,59.50
2019-02-08T23:26:56.373Z,59.30
2019-02-08T23:29:39.925Z,59.30
2019-02-08T23:32:24.670Z,59.10
2019-02-08T23:35:18.234Z,59.00
2019-02-08T23:38:01.159Z,58.90
2019-02-08T23:40:37.901Z,58.90
2019-02-08T23:43:36.691Z,58.80
2019-02-08T23:46:32.026Z,58.70
2019-02-08T23:48:54.086Z,58.70
2019-02-08T23:51:28.612Z,58.60
2019-02-08T23:54:09.657Z,58.50
2019-02-08T23:56:54.949Z,58.50
2019-02-08T23:59:37.697Z,58.50
